Time;durP1;ratioP1;P1;durP2;ratioP2;P2;SDS_P1;SDS_P2;PMS_P1;PMS_P2;Temp;Humidity;BMP_temperature;BMP_pressure;BME280_temperature;BME280_humidity;BME280_pressure;Samples;Min_cycle;Max_cycle;Signal;HPM_P1;HPM_P2
2022/03/27 00:01:29;;;;;;;733.47;686.27;;;6.40;99.90;;;;;;5018548;28;20572;-84
2022/03/27 00:03:56;;;;;;;693.90;653.07;;;6.50;99.90;;;;;;5018081;28;20479;-84
2022/03/27 00:06:22;;;;;;;709.77;667.07;;;6.50;99.90;;;;;;5018107;28;20503;-84
2022/03/27 00:08:49;;;;;;;640.50;604.80;;;6.30;99.90;;;;;;5018516;28;20457;-84
2022/03/27 00:11:26;;;;;;;583.10;553.40;;;6.20;99.90;;;;;;5018808;28;20473;-84
2022/03/27 00:13:54;;;;;;;544.47;517.17;;;6.20;99.90;;;;;;5014030;28;20457;-84
2022/03/27 00:16:23;;;;;;;476.70;453.67;;;6.10;99.90;;;;;;5017999;28;20473;-84
2022/03/27 00:18:50;;;;;;;516.03;490.00;;;6.00;99.90;;;;;;5018658;28;20449;-84
2022/03/27 00:21:16;;;;;;;616.53;583.13;;;5.90;99.90;;;;;;5024681;28;20559;-84
2022/03/27 00:23:43;;;;;;;645.43;610.33;;;5.90;99.90;;;;;;5025445;28;20829;-84
2022/03/27 00:26:10;;;;;;;648.03;612.63;;;5.90;99.90;;;;;;5025533;28;20461;-84
2022/03/27 00:28:37;;;;;;;632.60;597.77;;;5.80;99.90;;;;;;5023694;28;20457;-84
2022/03/27 00:31:06;;;;;;;633.40;598.17;;;5.90;99.90;;;;;;5024977;28;20480;-84
2022/03/27 00:33:35;;;;;;;602.27;568.47;;;5.80;99.90;;;;;;5024801;28;20449;-84
2022/03/27 00:36:03;;;;;;;686.33;645.50;;;5.70;99.90;;;;;;5024251;28;20464;-84
2022/03/27 00:38:30;;;;;;;815.20;761.90;;;5.70;99.90;;;;;;5024238;28;20441;-84
2022/03/27 00:40:57;;;;;;;807.57;753.77;;;5.80;99.90;;;;;;5024436;28;20465;-84
2022/03/27 00:43:25;;;;;;;793.57;743.07;;;5.90;99.90;;;;;;5024494;28;20460;-84
2022/03/27 00:45:52;;;;;;;718.60;675.00;;;5.80;99.90;;;;;;5024481;28;20536;-84
2022/03/27 00:48:21;;;;;;;741.27;696.40;;;5.60;99.90;;;;;;5024749;28;20441;-84
2022/03/27 00:50:50;;;;;;;815.90;763.13;;;5.70;99.90;;;;;;5023905;28;20476;-84
2022/03/27 00:53:17;;;;;;;864.93;802.83;;;5.70;99.90;;;;;;5024680;28;20449;-84
2022/03/27 00:55:45;;;;;;;859.30;794.30;;;5.80;99.90;;;;;;5024883;28;20456;-85
2022/03/27 00:58:12;;;;;;;861.03;794.70;;;5.80;99.90;;;;;;5023972;28;20512;-83
2022/03/27 01:00:58;;;;;;;854.67;788.50;;;5.90;99.90;;;;;;5024703;28;20480;-85
2022/03/27 01:03:26;;;;;;;863.73;797.13;;;5.90;99.90;;;;;;5021433;28;20464;-84
2022/03/27 01:05:57;;;;;;;876.70;810.57;;;5.90;99.90;;;;;;5024286;28;20531;-84
2022/03/27 01:11:14;;;;;;;897.83;831.93;;;5.90;99.90;;;;;;5024678;28;20522;-84
2022/03/27 01:13:44;;;;;;;892.03;820.20;;;5.80;99.90;;;;;;5024419;28;20452;-84
2022/03/27 01:16:28;;;;;;;887.30;813.80;;;5.90;99.90;;;;;;5025137;28;20512;-84
2022/03/27 01:18:55;;;;;;;873.47;802.73;;;6.00;99.90;;;;;;5024784;28;20461;-84
2022/03/27 01:21:23;;;;;;;876.47;809.30;;;6.00;99.90;;;;;;5024975;28;20481;-84
2022/03/27 01:23:50;;;;;;;896.50;830.83;;;5.90;99.90;;;;;;5023850;28;20445;-84
2022/03/27 01:26:18;;;;;;;894.73;829.03;;;5.90;99.90;;;;;;5024973;28;20456;-84
2022/03/27 01:28:45;;;;;;;894.87;824.20;;;5.80;99.90;;;;;;5023534;28;21043;-84
2022/03/27 01:31:11;;;;;;;884.30;811.70;;;5.80;99.90;;;;;;5021823;28;20477;-84
2022/03/27 01:33:38;;;;;;;875.07;802.43;;;5.90;99.90;;;;;;5020872;28;20460;-84
2022/03/27 01:36:05;;;;;;;874.80;801.80;;;5.90;99.90;;;;;;5020587;28;20468;-85
2022/03/27 01:38:34;;;;;;;864.90;795.63;;;5.90;99.90;;;;;;5020269;28;20540;-84
2022/03/27 01:41:01;;;;;;;856.53;788.90;;;5.80;99.90;;;;;;5021351;28;20507;-83
2022/03/27 01:43:28;;;;;;;876.17;804.47;;;5.70;99.90;;;;;;5021434;28;20985;-84
2022/03/27 01:45:55;;;;;;;877.60;803.60;;;5.70;99.90;;;;;;5021219;28;20974;-84
2022/03/27 01:48:21;;;;;;;864.77;789.80;;;5.70;99.90;;;;;;5020745;28;20453;-85
2022/03/27 01:50:59;;;;;;;851.80;779.63;;;5.70;99.90;;;;;;5020659;28;20477;-84
2022/03/27 01:53:25;;;;;;;865.80;792.03;;;5.80;99.90;;;;;;5020961;28;20457;-84
2022/03/27 01:55:53;;;;;;;852.07;780.10;;;5.80;99.90;;;;;;5020363;28;20453;-84
2022/03/27 01:58:21;;;;;;;848.53;776.27;;;5.90;99.90;;;;;;5020102;28;20473;-84
2022/03/27 02:00:48;;;;;;;851.43;781.57;;;5.90;99.90;;;;;;5021056;28;20481;-84
2022/03/27 02:03:15;;;;;;;852.97;780.33;;;5.80;99.90;;;;;;5020335;28;20456;-84
2022/03/27 02:05:42;;;;;;;854.67;781.57;;;5.90;99.90;;;;;;5020155;28;20449;-85
2022/03/27 02:08:09;;;;;;;837.80;766.87;;;5.90;99.90;;;;;;5020273;28;20480;-84
2022/03/27 02:10:36;;;;;;;844.97;774.27;;;6.00;99.90;;;;;;5020896;28;20477;-84
2022/03/27 02:13:04;;;;;;;849.73;779.23;;;5.90;99.90;;;;;;5020338;28;20453;-84
2022/03/27 02:15:31;;;;;;;852.80;784.10;;;5.90;99.90;;;;;;5021051;28;20476;-84
2022/03/27 02:17:58;;;;;;;838.17;772.77;;;5.70;99.90;;;;;;5019857;28;20481;-85
2022/03/27 02:20:25;;;;;;;845.87;779.40;;;5.70;99.90;;;;;;5019951;28;20469;-85
2022/03/27 02:22:51;;;;;;;847.40;778.77;;;5.60;99.90;;;;;;5020374;28;20460;-84
2022/03/27 02:25:18;;;;;;;811.20;747.80;;;5.70;99.90;;;;;;5020044;28;20795;-84
2022/03/27 02:27:45;;;;;;;786.23;724.83;;;6.00;99.90;;;;;;5020082;28;20457;-84
2022/03/27 02:30:15;;;;;;;814.27;747.87;;;6.30;99.90;;;;;;5019511;28;20469;-85
2022/03/27 02:32:51;;;;;;;801.97;739.37;;;6.20;99.90;;;;;;5019713;28;20529;-84
2022/03/27 02:35:18;;;;;;;814.13;750.73;;;6.20;99.90;;;;;;5019928;28;20996;-83
2022/03/27 02:37:45;;;;;;;826.77;761.70;;;6.30;99.90;;;;;;5019855;28;20481;-84
2022/03/27 02:40:12;;;;;;;827.43;763.07;;;6.30;99.90;;;;;;5019577;28;20531;-84
2022/03/27 02:42:39;;;;;;;836.40;773.77;;;6.10;99.90;;;;;;5018001;28;20468;-84
2022/03/27 02:45:07;;;;;;;856.07;791.57;;;6.00;99.90;;;;;;5019611;28;20494;-84
2022/03/27 02:47:35;;;;;;;871.33;800.87;;;5.80;99.90;;;;;;5019807;28;20465;-84
2022/03/27 02:50:02;;;;;;;864.43;791.07;;;5.80;99.90;;;;;;5019040;28;20453;-84
2022/03/27 02:52:29;;;;;;;855.97;786.70;;;5.70;99.90;;;;;;5020026;28;20488;-84
2022/03/27 02:54:56;;;;;;;861.20;788.00;;;5.80;99.90;;;;;;5019143;28;20460;-85
2022/03/27 02:57:23;;;;;;;862.07;787.50;;;5.70;99.90;;;;;;5020034;28;20478;-84
2022/03/27 02:59:52;;;;;;;852.07;780.60;;;5.80;99.90;;;;;;5019120;28;20815;-84
2022/03/27 03:02:19;;;;;;;865.17;795.50;;;5.70;99.90;;;;;;5019292;28;20468;-84
2022/03/27 03:04:48;;;;;;;867.93;798.77;;;5.50;99.90;;;;;;5018829;28;20465;-84
2022/03/27 03:07:15;;;;;;;868.43;797.43;;;5.40;99.90;;;;;;5018532;28;20456;-84
2022/03/27 03:09:42;;;;;;;891.73;815.63;;;5.20;99.90;;;;;;5019874;28;20915;-84
2022/03/27 03:12:10;;;;;;;895.43;814.03;;;5.20;99.90;;;;;;5018681;28;20473;-84
2022/03/27 03:14:37;;;;;;;893.93;812.10;;;5.10;99.90;;;;;;5019064;28;20461;-85
2022/03/27 03:17:05;;;;;;;909.73;820.17;;;5.10;99.90;;;;;;5018696;28;20961;-85
2022/03/27 03:19:32;;;;;;;901.43;811.33;;;5.10;99.90;;;;;;5019407;28;20488;-85
2022/03/27 03:22:00;;;;;;;901.00;813.73;;;5.30;99.90;;;;;;5019241;28;20473;-84
2022/03/27 03:24:27;;;;;;;895.27;810.20;;;5.20;99.90;;;;;;5019596;28;20460;-84
2022/03/27 03:26:54;;;;;;;900.17;817.00;;;5.10;99.90;;;;;;5019351;28;20453;-84
2022/03/27 03:29:22;;;;;;;905.07;822.77;;;5.00;99.90;;;;;;5018674;28;20966;-85
2022/03/27 03:31:49;;;;;;;901.93;818.73;;;4.80;99.90;;;;;;5018361;28;20473;-84
2022/03/27 03:34:16;;;;;;;902.93;819.53;;;4.90;99.90;;;;;;5018851;28;20459;-85
2022/03/27 03:36:43;;;;;;;896.53;810.73;;;4.70;99.90;;;;;;5018171;28;20840;-84
2022/03/27 03:39:11;;;;;;;907.00;814.53;;;4.60;99.90;;;;;;5017811;28;20477;-84
2022/03/27 03:41:38;;;;;;;930.63;835.70;;;4.70;99.90;;;;;;5018446;28;20464;-81
2022/03/27 03:44:05;;;;;;;941.77;844.70;;;4.80;99.90;;;;;;5010825;28;20823;-83
2022/03/27 03:46:32;;;;;;;947.53;852.87;;;4.80;99.90;;;;;;5016721;28;20464;-84
2022/03/27 03:48:59;;;;;;;944.80;851.67;;;4.80;99.90;;;;;;5016783;28;20830;-81
2022/03/27 03:51:25;;;;;;;942.00;849.93;;;4.90;99.90;;;;;;5015808;28;20469;-81
2022/03/27 03:53:52;;;;;;;942.33;849.33;;;4.90;99.90;;;;;;5016020;28;20453;-84
2022/03/27 03:56:20;;;;;;;935.67;844.20;;;4.90;99.90;;;;;;5018202;28;20457;-86
2022/03/27 03:58:47;;;;;;;933.80;841.83;;;4.70;99.90;;;;;;5018653;28;20476;-85
2022/03/27 04:01:13;;;;;;;934.43;841.70;;;4.60;99.90;;;;;;5016939;28;20477;-85
2022/03/27 04:03:40;;;;;;;933.40;838.47;;;4.60;99.90;;;;;;5017335;28;20453;-85
2022/03/27 04:06:07;;;;;;;937.47;841.00;;;4.50;99.90;;;;;;5018322;28;20525;-85
2022/03/27 04:08:34;;;;;;;943.93;843.60;;;4.70;99.90;;;;;;5012737;28;20869;-84
2022/03/27 04:11:01;;;;;;;947.47;846.20;;;4.70;99.90;;;;;;5012111;28;20476;-85
2022/03/27 04:13:29;;;;;;;956.67;856.33;;;4.80;99.90;;;;;;5018213;28;20460;-84
2022/03/27 04:15:55;;;;;;;941.50;843.00;;;4.70;99.90;;;;;;5001011;28;20805;-84
2022/03/27 04:18:23;;;;;;;939.57;843.63;;;4.60;99.90;;;;;;4998940;28;20477;-84
2022/03/27 04:20:51;;;;;;;950.07;852.77;;;4.50;99.90;;;;;;5005907;28;20469;-84
2022/03/27 04:23:18;;;;;;;953.67;853.13;;;4.50;99.90;;;;;;5016167;28;20909;-87
2022/03/27 04:25:45;;;;;;;965.47;862.60;;;4.50;99.90;;;;;;5017086;28;20536;-83
2022/03/27 04:28:11;;;;;;;985.53;880.83;;;4.50;99.90;;;;;;5016190;28;20449;-84
2022/03/27 04:30:40;;;;;;;972.00;868.50;;;4.80;99.90;;;;;;5015231;28;20473;-85
2022/03/27 04:33:08;;;;;;;964.57;860.87;;;4.80;99.90;;;;;;5016959;28;21000;-84
2022/03/27 04:35:35;;;;;;;955.90;852.30;;;4.70;99.90;;;;;;5016736;28;20666;-84
2022/03/27 04:38:02;;;;;;;957.23;855.57;;;4.70;99.90;;;;;;5017418;28;20477;-84
2022/03/27 04:40:29;;;;;;;965.73;864.47;;;4.60;99.90;;;;;;5017227;28;20469;-84
2022/03/27 04:42:55;;;;;;;959.20;857.80;;;4.50;99.90;;;;;;5015479;28;20449;-84
2022/03/27 04:45:22;;;;;;;963.30;860.67;;;4.50;99.90;;;;;;5017360;28;20465;-84
2022/03/27 04:47:50;;;;;;;970.33;864.60;;;4.50;99.90;;;;;;5017317;28;20461;-85
2022/03/27 04:50:17;;;;;;;981.10;875.03;;;4.60;99.90;;;;;;5018228;28;20469;-85
2022/03/27 04:52:44;;;;;;;979.40;873.50;;;4.70;99.90;;;;;;5017472;28;20464;-84
2022/03/27 04:55:11;;;;;;;974.97;868.30;;;4.70;99.90;;;;;;5016022;28;20453;-85
2022/03/27 04:57:39;;;;;;;972.90;866.77;;;4.50;99.90;;;;;;5017378;28;20826;-85
2022/03/27 05:00:10;;;;;;;972.73;864.87;;;4.50;99.90;;;;;;5016963;28;20453;-84
2022/03/27 05:02:38;;;;;;;967.77;858.53;;;4.60;99.90;;;;;;5057309;23;20496;-84
2022/03/27 05:05:08;;;;;;;960.93;856.47;;;4.60;99.90;;;;;;5037100;28;20515;-84
2022/03/27 05:07:36;;;;;;;945.33;842.20;;;4.80;99.90;;;;;;5039562;28;20456;-83
2022/03/27 05:10:03;;;;;;;947.93;844.00;;;4.80;99.90;;;;;;5039587;28;20452;-84
2022/03/27 05:12:30;;;;;;;953.87;850.60;;;4.90;99.90;;;;;;5038668;28;20468;-83
2022/03/27 05:14:57;;;;;;;939.60;838.50;;;5.00;99.90;;;;;;5021168;28;20457;-83
2022/03/27 05:17:24;;;;;;;935.20;834.73;;;5.00;99.90;;;;;;5021024;28;20457;-84
2022/03/27 05:19:50;;;;;;;936.37;838.10;;;4.90;99.90;;;;;;5039439;28;20483;-84
2022/03/27 05:22:19;;;;;;;937.87;834.47;;;4.90;99.90;;;;;;5023618;28;20484;-85
2022/03/27 05:24:49;;;;;;;936.07;834.93;;;4.70;99.90;;;;;;5041348;28;20455;-85
2022/03/27 05:27:18;;;;;;;939.83;836.10;;;4.60;99.90;;;;;;5040938;28;20475;-84
2022/03/27 05:29:45;;;;;;;934.60;831.20;;;4.50;99.90;;;;;;5040250;28;20450;-83
2022/03/27 05:32:13;;;;;;;948.20;846.20;;;4.50;99.90;;;;;;5038825;28;20580;-84
2022/03/27 05:34:40;;;;;;;937.67;839.33;;;4.60;99.90;;;;;;5039390;28;20484;-85
2022/03/27 05:37:07;;;;;;;937.27;837.90;;;4.60;99.90;;;;;;5039591;28;20486;-84
2022/03/27 05:39:35;;;;;;;932.80;833.40;;;4.70;99.90;;;;;;5040261;28;21016;-84
2022/03/27 05:42:02;;;;;;;933.03;831.33;;;4.60;99.90;;;;;;5040763;28;20495;-84
2022/03/27 05:44:29;;;;;;;952.73;830.87;;;4.70;99.90;;;;;;5040397;28;20459;-84
2022/03/27 05:46:56;;;;;;;959.03;837.70;;;4.80;99.90;;;;;;5039724;28;20884;-84
2022/03/27 05:49:23;;;;;;;974.20;840.00;;;4.70;99.90;;;;;;5032207;28;20453;-85
2022/03/27 05:51:50;;;;;;;951.30;841.87;;;4.90;99.90;;;;;;5039746;28;20479;-83
2022/03/27 05:54:16;;;;;;;982.43;843.13;;;4.80;99.90;;;;;;5040013;28;20456;-84
2022/03/27 05:56:44;;;;;;;975.97;848.30;;;4.90;99.90;;;;;;5038689;28;20984;-83
2022/03/27 05:59:11;;;;;;;952.50;850.47;;;4.90;99.90;;;;;;5038849;28;20479;-85
2022/03/27 06:01:38;;;;;;;956.87;852.67;;;5.40;99.90;;;;;;5039029;28;20853;-83
2022/03/27 06:04:05;;;;;;;951.53;848.10;;;5.70;99.90;;;;;;5038042;28;20453;-84
2022/03/27 06:06:32;;;;;;;956.67;851.10;;;6.00;99.90;;;;;;5043692;28;20948;-84
2022/03/27 06:08:59;;;;;;;949.40;844.47;;;6.50;99.90;;;;;;5042736;28;20459;-84
2022/03/27 06:11:25;;;;;;;976.13;859.03;;;6.60;99.90;;;;;;5044105;28;20479;-84
2022/03/27 06:13:53;;;;;;;1018.17;864.63;;;6.70;99.90;;;;;;5042906;28;20448;-84
2022/03/27 06:16:20;;;;;;;965.53;853.07;;;7.10;99.90;;;;;;5042578;28;20467;-83
2022/03/27 06:18:47;;;;;;;956.10;852.13;;;7.30;99.90;;;;;;5042473;28;21008;-84
2022/03/27 06:21:14;;;;;;;954.07;850.87;;;7.60;99.90;;;;;;5043101;28;20554;-83
2022/03/27 06:23:41;;;;;;;979.63;845.50;;;7.70;99.90;;;;;;5045669;28;20448;-84
2022/03/27 06:26:08;;;;;;;964.27;840.27;;;8.00;99.90;;;;;;5049307;28;20479;-84
2022/03/27 06:28:35;;;;;;;937.00;836.90;;;8.10;99.90;;;;;;5055317;28;20446;-85
2022/03/27 06:31:04;;;;;;;929.30;835.00;;;8.30;99.90;;;;;;5036867;28;20457;-86
2022/03/27 06:33:30;;;;;;;881.53;798.17;;;8.30;99.90;;;;;;5036016;28;20450;-84
2022/03/27 06:35:58;;;;;;;910.70;817.87;;;8.40;99.90;;;;;;5028853;28;20460;-83
2022/03/27 06:38:24;;;;;;;888.20;800.90;;;8.50;99.90;;;;;;5040780;28;20483;-84
2022/03/27 06:40:51;;;;;;;898.43;812.97;;;8.50;99.90;;;;;;5040234;28;20460;-85
2022/03/27 06:43:18;;;;;;;906.93;817.77;;;8.60;99.90;;;;;;5039340;28;20456;-85
2022/03/27 06:45:45;;;;;;;883.50;801.63;;;8.80;99.90;;;;;;5040609;28;20449;-85
2022/03/27 06:48:13;;;;;;;861.67;784.67;;;8.70;99.90;;;;;;5053927;28;20445;-85
2022/03/27 06:50:40;;;;;;;870.27;790.60;;;8.80;99.90;;;;;;5057833;28;20433;-84
2022/03/27 06:53:07;;;;;;;872.63;792.40;;;9.00;99.90;;;;;;5056981;28;20459;-86
2022/03/27 06:55:34;;;;;;;842.67;768.17;;;9.10;99.90;;;;;;5057066;28;20456;-84
2022/03/27 06:58:01;;;;;;;865.70;787.10;;;9.00;99.90;;;;;;5041663;28;20448;-83
2022/03/27 07:03:13;;;;;;;882.90;804.60;;;9.20;99.90;;;;;;5038253;28;20447;-84
2022/03/27 07:05:41;;;;;;;856.07;781.80;;;9.40;99.90;;;;;;5039062;28;20450;-85
2022/03/27 07:08:10;;;;;;;847.40;775.30;;;9.60;99.90;;;;;;5038391;28;20454;-83
2022/03/27 07:10:37;;;;;;;848.43;780.97;;;9.70;99.90;;;;;;5040480;28;20451;-85
2022/03/27 07:13:04;;;;;;;816.53;756.23;;;9.80;99.90;;;;;;5036311;28;20460;-84
2022/03/27 07:15:31;;;;;;;844.43;778.87;;;9.80;99.90;;;;;;5033421;28;20448;-84
2022/03/27 07:17:59;;;;;;;831.93;769.60;;;9.90;99.90;;;;;;5038276;28;20476;-84
2022/03/27 07:20:29;;;;;;;809.57;754.50;;;10.20;99.90;;;;;;5037543;28;20682;-84
2022/03/27 07:22:57;;;;;;;794.80;744.33;;;10.10;99.90;;;;;;5019277;28;20700;-85
2022/03/27 07:25:26;;;;;;;796.53;745.07;;;10.30;99.90;;;;;;5030936;28;20448;-86
2022/03/27 07:27:53;;;;;;;802.90;750.67;;;10.30;99.90;;;;;;5038984;28;20456;-83
2022/03/27 07:30:21;;;;;;;773.47;727.67;;;10.50;99.90;;;;;;5038177;28;20453;-85
2022/03/27 07:32:48;;;;;;;750.00;708.03;;;10.40;99.90;;;;;;5038139;28;20522;-85
2022/03/27 07:35:16;;;;;;;718.57;679.57;;;10.50;99.90;;;;;;5040766;28;20452;-86
2022/03/27 07:37:45;;;;;;;713.67;674.77;;;10.40;99.90;;;;;;5037895;28;20858;-86
2022/03/27 07:40:14;;;;;;;619.27;589.87;;;10.50;99.90;;;;;;5036985;28;20487;-85
2022/03/27 07:42:42;;;;;;;597.23;564.60;;;10.60;99.90;;;;;;5037537;28;20484;-84
2022/03/27 07:45:10;;;;;;;550.97;518.17;;;10.70;99.90;;;;;;5037131;28;20452;-84
2022/03/27 07:47:38;;;;;;;473.50;446.33;;;10.70;99.90;;;;;;5037564;28;20455;-85
2022/03/27 07:50:06;;;;;;;422.67;401.47;;;10.90;99.90;;;;;;5036569;28;20456;-85
2022/03/27 07:52:33;;;;;;;322.53;305.30;;;10.90;99.90;;;;;;5036424;28;21006;-86
2022/03/27 07:55:01;;;;;;;289.03;273.40;;;11.20;99.90;;;;;;5036933;28;20459;-85
2022/03/27 07:57:28;;;;;;;189.77;177.67;;;11.10;99.90;;;;;;5037711;28;20456;-85
2022/03/27 07:59:55;;;;;;;187.47;175.23;;;10.90;99.90;;;;;;5035501;28;20563;-85
2022/03/27 08:02:22;;;;;;;208.10;195.20;;;11.20;99.90;;;;;;5037439;28;20488;-84
2022/03/27 08:04:49;;;;;;;137.73;127.40;;;11.30;99.90;;;;;;5037735;28;20548;-84
2022/03/27 08:07:16;;;;;;;152.33;139.30;;;11.30;99.90;;;;;;5037291;28;20461;-85
2022/03/27 08:09:43;;;;;;;71.43;65.70;;;11.30;99.90;;;;;;5040616;28;20471;-86
2022/03/27 08:12:11;;;;;;;94.17;85.07;;;11.10;99.90;;;;;;5033753;28;20467;-85
2022/03/27 08:14:39;;;;;;;97.67;88.27;;;11.30;99.90;;;;;;5039541;28;20456;-83
2022/03/27 08:17:06;;;;;;;72.97;61.83;;;11.60;99.90;;;;;;5035801;28;20448;-83
2022/03/27 08:19:33;;;;;;;84.03;66.87;;;11.70;99.90;;;;;;5035560;28;20472;-83
2022/03/27 08:22:01;;;;;;;57.47;47.80;;;12.10;99.90;;;;;;5035642;28;20475;-83
2022/03/27 08:24:28;;;;;;;57.33;48.23;;;12.00;99.90;;;;;;5022019;28;20445;-84
2022/03/27 08:26:56;;;;;;;55.57;48.03;;;12.10;99.90;;;;;;5035570;28;20964;-84
2022/03/27 08:29:25;;;;;;;43.60;37.40;;;12.10;99.90;;;;;;5036100;28;20457;-83
2022/03/27 08:31:52;;;;;;;50.50;41.77;;;12.10;99.90;;;;;;5035549;28;20476;-83
2022/03/27 08:34:20;;;;;;;54.60;40.30;;;12.40;99.90;;;;;;5036549;28;20487;-84
2022/03/27 08:36:47;;;;;;;50.70;36.93;;;13.00;99.90;;;;;;5034462;28;20456;-83
2022/03/27 08:39:14;;;;;;;62.67;41.13;;;13.20;96.80;;;;;;5034234;28;20472;-82
2022/03/27 08:41:44;;;;;;;92.90;61.90;;;13.00;96.60;;;;;;5038576;28;20487;-84
2022/03/27 08:44:12;;;;;;;98.33;64.40;;;13.10;95.60;;;;;;5041934;28;20506;-83
2022/03/27 08:46:41;;;;;;;92.73;62.80;;;13.20;93.90;;;;;;5041423;28;20456;-83
2022/03/27 08:49:11;;;;;;;74.27;54.33;;;13.50;93.70;;;;;;5040848;28;20449;-82
2022/03/27 08:51:47;;;;;;;91.80;61.30;;;13.40;93.00;;;;;;5040442;28;20476;-84
2022/03/27 08:54:17;;;;;;;97.70;65.80;;;13.20;92.90;;;;;;5040512;28;20448;-84
2022/03/27 08:56:50;;;;;;;56.20;38.20;;;13.30;92.30;;;;;;5040990;28;20479;-83
2022/03/27 08:59:18;;;;;;;60.53;39.50;;;13.10;92.30;;;;;;5040525;28;20472;-85
2022/03/27 09:01:47;;;;;;;58.33;39.33;;;13.30;93.10;;;;;;5040556;28;21007;-83
2022/03/27 09:04:14;;;;;;;60.93;41.30;;;13.10;92.20;;;;;;5040767;28;20452;-85
2022/03/27 09:06:40;;;;;;;51.90;36.53;;;13.10;92.60;;;;;;5040940;28;21007;-84
2022/03/27 09:09:07;;;;;;;50.17;35.00;;;12.90;93.00;;;;;;5040655;28;20448;-83
2022/03/27 09:11:35;;;;;;;54.80;32.80;;;12.80;93.50;;;;;;5040924;28;20478;-83
2022/03/27 09:14:04;;;;;;;58.50;35.93;;;12.70;94.00;;;;;;5040537;28;20452;-83
2022/03/27 09:16:31;;;;;;;60.73;43.80;;;12.60;94.40;;;;;;5040375;28;20522;-84
2022/03/27 09:19:01;;;;;;;64.60;48.00;;;12.70;95.10;;;;;;5040128;28;20460;-83
2022/03/27 09:21:28;;;;;;;62.87;40.13;;;12.80;94.00;;;;;;5040686;28;20480;-83
2022/03/27 09:23:56;;;;;;;41.27;28.00;;;13.10;93.10;;;;;;5039885;28;20463;-84
2022/03/27 09:26:23;;;;;;;52.97;39.10;;;12.90;92.20;;;;;;5040640;28;20456;-83
2022/03/27 09:28:52;;;;;;;49.90;34.10;;;13.30;92.30;;;;;;5040721;28;20465;-83
2022/03/27 09:31:25;;;;;;;43.30;29.30;;;13.40;92.40;;;;;;5040521;28;20480;-84
2022/03/27 09:33:53;;;;;;;42.17;28.27;;;13.40;91.40;;;;;;5040717;28;20458;-83
2022/03/27 09:36:23;;;;;;;39.77;28.97;;;13.50;90.60;;;;;;5040857;28;20461;-84
2022/03/27 09:39:06;;;;;;;44.10;33.73;;;13.70;88.40;;;;;;5040707;28;20457;-84
2022/03/27 09:41:39;;;;;;;42.67;30.07;;;14.00;88.70;;;;;;5040524;28;20486;-84
2022/03/27 09:44:07;;;;;;;36.20;26.17;;;14.20;84.10;;;;;;5040971;28;20455;-84
2022/03/27 09:46:54;;;;;;;43.40;30.90;;;14.20;82.70;;;;;;5040744;28;20467;-85
2022/03/27 09:49:25;;;;;;;43.93;31.17;;;14.60;81.10;;;;;;5040612;28;20518;-84
2022/03/27 09:51:58;;;;;;;43.23;29.97;;;14.70;81.20;;;;;;5040531;28;20874;-84
2022/03/27 09:54:27;;;;;;;44.40;33.03;;;15.00;75.80;;;;;;5041591;28;20458;-84
2022/03/27 09:56:54;;;;;;;43.07;29.07;;;15.00;75.30;;;;;;5041353;28;20462;-84
2022/03/27 09:59:32;;;;;;;38.30;30.27;;;15.30;73.30;;;;;;5040519;28;21058;-84
2022/03/27 10:02:21;;;;;;;37.57;29.63;;;15.30;69.90;;;;;;5041224;28;20533;-84
2022/03/27 10:05:02;;;;;;;40.40;31.83;;;15.60;68.70;;;;;;5041867;28;20447;-84
2022/03/27 10:07:40;;;;;;;56.60;35.00;;;15.70;67.60;;;;;;5042225;28;20457;-85
2022/03/27 10:10:09;;;;;;;45.23;29.80;;;16.00;66.80;;;;;;5042153;28;20460;-84
2022/03/27 10:12:37;;;;;;;47.47;29.93;;;16.00;64.00;;;;;;5043018;28;20477;-84
2022/03/27 10:15:06;;;;;;;43.57;31.30;;;16.20;64.00;;;;;;5042352;28;20454;-84
2022/03/27 10:17:35;;;;;;;37.53;30.40;;;16.50;60.10;;;;;;5042713;28;20456;-85
2022/03/27 10:20:09;;;;;;;35.07;25.87;;;16.90;61.10;;;;;;5042013;28;21008;-84
2022/03/27 10:22:43;;;;;;;38.30;27.20;;;16.80;56.90;;;;;;5042699;28;20519;-84
2022/03/27 10:25:11;;;;;;;34.90;24.50;;;17.20;56.30;;;;;;5044155;28;20458;-85
2022/03/27 10:27:40;;;;;;;36.63;27.97;;;17.00;56.20;;;;;;5043546;28;20470;-83
2022/03/27 10:30:09;;;;;;;38.97;26.97;;;17.00;55.70;;;;;;5042567;28;20452;-84
2022/03/27 10:32:37;;;;;;;39.83;30.17;;;16.80;54.60;;;;;;5043683;28;20540;-85
2022/03/27 10:35:25;;;;;;;35.70;28.20;;;17.00;54.90;;;;;;5043612;28;20466;-84
2022/03/27 10:38:02;;;;;;;36.20;25.87;;;17.00;52.00;;;;;;5042777;28;20465;-84
2022/03/27 10:40:36;;;;;;;39.57;26.10;;;16.80;55.50;;;;;;5041856;28;20471;-84
2022/03/27 10:43:10;;;;;;;33.33;23.90;;;16.70;52.20;;;;;;5043671;28;21052;-84
2022/03/27 10:45:37;;;;;;;31.20;21.47;;;17.40;52.00;;;;;;5043340;28;20459;-84
2022/03/27 10:48:10;;;;;;;30.47;22.80;;;17.50;50.80;;;;;;5043242;28;20458;-84
2022/03/27 10:50:52;;;;;;;34.70;26.50;;;17.50;47.20;;;;;;5042517;28;20466;-84
2022/03/27 10:53:22;;;;;;;30.93;25.43;;;17.60;48.50;;;;;;5043391;28;20451;-84
2022/03/27 10:55:51;;;;;;;29.63;25.77;;;18.00;46.40;;;;;;5043862;28;20511;-84
2022/03/27 10:58:29;;;;;;;33.13;24.87;;;18.40;45.60;;;;;;5042041;28;20483;-84
2022/03/27 11:03:49;;;;;;;34.70;25.70;;;19.20;38.30;;;;;;5058316;23;20999;-84
2022/03/27 11:06:38;;;;;;;33.00;26.30;;;18.50;40.60;;;;;;5039936;28;20451;-83
2022/03/27 11:09:07;;;;;;;27.43;20.27;;;18.40;39.10;;;;;;5036102;28;20467;-84
2022/03/27 11:12:08;;;;;;;29.20;24.03;;;18.20;38.80;;;;;;5040003;28;20699;-84
2022/03/27 11:14:57;;;;;;;27.30;22.70;;;18.40;40.20;;;;;;5040906;28;20459;-84
2022/03/27 11:17:32;;;;;;;29.80;23.30;;;18.40;38.90;;;;;;5039783;28;20466;-84
2022/03/27 11:20:00;;;;;;;29.90;22.33;;;19.20;35.90;;;;;;5038972;28;20847;-83
2022/03/27 11:22:49;;;;;;;29.60;24.53;;;18.60;34.70;;;;;;5038901;28;20482;-84
2022/03/27 11:25:35;;;;;;;30.43;22.80;;;19.80;35.10;;;;;;5039612;28;20546;-84
2022/03/27 11:28:08;;;;;;;29.67;23.37;;;19.50;30.80;;;;;;5039189;28;20454;-84
2022/03/27 11:30:37;;;;;;;31.23;23.47;;;19.20;34.50;;;;;;5039452;28;20456;-84
2022/03/27 11:33:15;;;;;;;35.43;25.57;;;19.10;33.80;;;;;;5038734;28;20856;-84
2022/03/27 11:35:43;;;;;;;31.50;25.37;;;18.90;34.30;;;;;;5039071;28;20486;-84
2022/03/27 11:38:21;;;;;;;35.30;22.73;;;18.80;34.90;;;;;;5039326;28;20541;-84
2022/03/27 11:40:49;;;;;;;25.90;20.23;;;18.90;34.40;;;;;;5038010;28;20980;-84
2022/03/27 11:43:32;;;;;;;28.10;22.33;;;18.50;31.90;;;;;;5039141;28;20482;-83
2022/03/27 11:46:01;;;;;;;30.20;25.50;;;18.60;33.50;;;;;;5038638;28;20942;-83
2022/03/27 11:48:28;;;;;;;31.47;24.10;;;18.80;34.20;;;;;;5039431;28;20452;-84
2022/03/27 11:50:56;;;;;;;27.20;23.43;;;18.80;32.70;;;;;;5038332;28;20466;-83
2022/03/27 11:53:33;;;;;;;30.27;24.37;;;18.80;32.00;;;;;;5038787;28;20497;-84
2022/03/27 11:56:14;;;;;;;30.93;24.23;;;19.00;32.20;;;;;;5039517;28;20451;-86
2022/03/27 11:58:42;;;;;;;25.80;22.30;;;19.40;30.40;;;;;;5038398;28;20450;-86
2022/03/27 12:01:14;;;;;;;29.10;21.83;;;19.10;28.60;;;;;;5038445;28;20437;-86
2022/03/27 12:03:41;;;;;;;26.07;18.80;;;19.60;28.10;;;;;;5038396;28;20521;-87
2022/03/27 12:06:09;;;;;;;31.00;23.53;;;19.60;27.50;;;;;;5037530;28;20443;-85
2022/03/27 12:08:38;;;;;;;26.93;20.63;;;19.70;27.30;;;;;;5038870;28;20444;-86
2022/03/27 12:11:07;;;;;;;25.17;21.00;;;19.80;25.20;;;;;;5038335;28;20488;-84
2022/03/27 12:13:38;;;;;;;28.03;19.13;;;19.80;27.10;;;;;;5038763;28;20991;-84
2022/03/27 12:16:06;;;;;;;25.57;20.20;;;19.30;26.50;;;;;;5039325;28;20455;-84
2022/03/27 12:18:35;;;;;;;23.93;15.70;;;19.60;24.40;;;;;;5038781;28;20542;-84
2022/03/27 12:21:04;;;;;;;26.50;20.77;;;19.50;25.40;;;;;;5038608;28;20916;-84
2022/03/27 12:23:32;;;;;;;26.03;20.20;;;19.50;24.20;;;;;;5038033;28;20456;-84
2022/03/27 12:26:01;;;;;;;23.93;19.13;;;20.40;22.00;;;;;;5039283;28;20463;-84
2022/03/27 12:31:24;;;;;;;24.20;17.83;;;20.90;20.00;;;;;;5038534;28;21062;-84
2022/03/27 12:33:52;;;;;;;25.57;18.10;;;22.00;16.80;;;;;;5038841;28;20434;-84
2022/03/27 12:36:19;;;;;;;20.03;15.90;;;21.50;15.70;;;;;;5039102;28;20448;-84
2022/03/27 12:38:47;;;;;;;22.43;17.53;;;20.70;17.80;;;;;;5038397;28;20460;-84
2022/03/27 12:41:14;;;;;;;26.90;19.50;;;20.30;17.60;;;;;;5039274;28;20506;-84